sensor_id;sensor_type;location;lat;lon;timestamp;pressure;altitude;pressure_sealevel;temperature;humidity
42671;BME280;28283;55.426;37.756;2022-09-25T00:00:30;97496.66;;;6.58;97.84
42671;BME280;28283;55.426;37.756;2022-09-25T00:05:34;97489.22;;;6.41;97.43
42671;BME280;28283;55.426;37.756;2022-09-25T00:10:44;97455.38;;;6.17;98.29
42671;BME280;28283;55.426;37.756;2022-09-25T00:15:53;97486.44;;;6.29;97.63
42671;BME280;28283;55.426;37.756;2022-09-25T00:21:00;97470.34;;;6.18;98.30
42671;BME280;28283;55.426;37.756;2022-09-25T00:26:02;97496.31;;;6.29;98.09
42671;BME280;28283;55.426;37.756;2022-09-25T00:31:05;97462.84;;;6.08;98.45
42671;BME280;28283;55.426;37.756;2022-09-25T00:36:08;97478.97;;;6.20;98.15
42671;BME280;28283;55.426;37.756;2022-09-25T00:41:09;97507.41;;;6.26;98.19
42671;BME280;28283;55.426;37.756;2022-09-25T00:46:14;97503.28;;;6.30;97.91
42671;BME280;28283;55.426;37.756;2022-09-25T00:51:18;97496.06;;;6.12;98.16
42671;BME280;28283;55.426;37.756;2022-09-25T00:56:20;97491.97;;;6.09;98.30
42671;BME280;28283;55.426;37.756;2022-09-25T01:01:21;97506.00;;;6.23;98.04
42671;BME280;28283;55.426;37.756;2022-09-25T01:06:24;97490.34;;;6.08;98.05
42671;BME280;28283;55.426;37.756;2022-09-25T01:11:25;97512.75;;;6.26;98.33
42671;BME280;28283;55.426;37.756;2022-09-25T01:16:44;97519.31;;;6.30;98.01
42671;BME280;28283;55.426;37.756;2022-09-25T01:21:52;97489.50;;;6.08;98.30
42671;BME280;28283;55.426;37.756;2022-09-25T01:32:55;97521.81;;;6.25;98.08
42671;BME280;28283;55.426;37.756;2022-09-25T01:37:41;97529.59;;;6.26;98.82
42671;BME280;28283;55.426;37.756;2022-09-25T01:42:53;97519.41;;;6.17;98.70
42671;BME280;28283;55.426;37.756;2022-09-25T01:47:57;97511.22;;;6.11;98.48
42671;BME280;28283;55.426;37.756;2022-09-25T01:53:03;97496.09;;;6.05;98.47
42671;BME280;28283;55.426;37.756;2022-09-25T02:03:19;97545.81;;;6.25;98.47
42671;BME280;28283;55.426;37.756;2022-09-25T02:08:25;97544.13;;;6.30;98.33
42671;BME280;28283;55.426;37.756;2022-09-25T02:13:51;97492.00;;;6.03;98.95
42671;BME280;28283;55.426;37.756;2022-09-25T02:18:54;97531.25;;;6.21;98.42
42671;BME280;28283;55.426;37.756;2022-09-25T02:29:18;97537.75;;;6.31;99.50
42671;BME280;28283;55.426;37.756;2022-09-25T02:34:21;97528.50;;;6.34;98.93
42671;BME280;28283;55.426;37.756;2022-09-25T02:39:23;97520.72;;;6.33;99.11
42671;BME280;28283;55.426;37.756;2022-09-25T02:50:20;97551.97;;;6.50;99.10
42671;BME280;28283;55.426;37.756;2022-09-25T03:00:38;97558.81;;;6.40;98.26
42671;BME280;28283;55.426;37.756;2022-09-25T03:05:40;97526.81;;;6.15;97.79
42671;BME280;28283;55.426;37.756;2022-09-25T03:10:41;97564.75;;;6.42;98.21
42671;BME280;28283;55.426;37.756;2022-09-25T03:15:49;97553.75;;;6.31;97.82
42671;BME280;28283;55.426;37.756;2022-09-25T03:20:51;97574.88;;;6.33;97.87
42671;BME280;28283;55.426;37.756;2022-09-25T03:25:53;97575.09;;;6.31;98.23
42671;BME280;28283;55.426;37.756;2022-09-25T03:31:01;97540.47;;;6.00;97.86
42671;BME280;28283;55.426;37.756;2022-09-25T03:36:08;97574.81;;;6.15;98.27
42671;BME280;28283;55.426;37.756;2022-09-25T03:41:12;97574.22;;;6.13;98.52
42671;BME280;28283;55.426;37.756;2022-09-25T03:46:13;97562.78;;;6.05;98.02
42671;BME280;28283;55.426;37.756;2022-09-25T03:51:14;97579.34;;;6.14;97.74
42671;BME280;28283;55.426;37.756;2022-09-25T03:56:18;97584.09;;;6.12;98.53
42671;BME280;28283;55.426;37.756;2022-09-25T04:01:20;97602.91;;;6.17;98.76
42671;BME280;28283;55.426;37.756;2022-09-25T04:06:23;97599.63;;;6.15;97.75
42671;BME280;28283;55.426;37.756;2022-09-25T04:11:25;97596.97;;;6.15;98.16
42671;BME280;28283;55.426;37.756;2022-09-25T04:16:25;97610.91;;;6.17;98.00
42671;BME280;28283;55.426;37.756;2022-09-25T04:21:29;97570.06;;;5.85;98.19
42671;BME280;28283;55.426;37.756;2022-09-25T04:26:30;97622.41;;;6.18;97.92
42671;BME280;28283;55.426;37.756;2022-09-25T04:31:31;97610.13;;;6.10;97.77
42671;BME280;28283;55.426;37.756;2022-09-25T04:36:32;97614.44;;;6.11;98.31
42671;BME280;28283;55.426;37.756;2022-09-25T04:41:33;97549.81;;;5.77;98.09
42671;BME280;28283;55.426;37.756;2022-09-25T04:46:35;97644.09;;;6.28;97.79
42671;BME280;28283;55.426;37.756;2022-09-25T04:51:35;97644.81;;;6.42;98.51
42671;BME280;28283;55.426;37.756;2022-09-25T04:56:36;97642.44;;;6.34;97.64
42671;BME280;28283;55.426;37.756;2022-09-25T05:01:36;97603.59;;;6.06;97.58
42671;BME280;28283;55.426;37.756;2022-09-25T05:06:38;97648.97;;;6.38;97.79
42671;BME280;28283;55.426;37.756;2022-09-25T05:11:38;97644.53;;;6.25;97.64
42671;BME280;28283;55.426;37.756;2022-09-25T05:16:39;97631.03;;;6.20;97.14
42671;BME280;28283;55.426;37.756;2022-09-25T05:21:41;97665.75;;;6.45;97.30
42671;BME280;28283;55.426;37.756;2022-09-25T05:26:42;97670.28;;;6.44;97.89
42671;BME280;28283;55.426;37.756;2022-09-25T05:31:43;97669.50;;;6.37;97.32
42671;BME280;28283;55.426;37.756;2022-09-25T05:36:46;97681.94;;;6.50;97.67
42671;BME280;28283;55.426;37.756;2022-09-25T05:41:47;97661.50;;;6.37;97.54
42671;BME280;28283;55.426;37.756;2022-09-25T05:46:47;97638.81;;;6.21;97.67
42671;BME280;28283;55.426;37.756;2022-09-25T05:51:49;97684.16;;;6.53;97.44
42671;BME280;28283;55.426;37.756;2022-09-25T05:56:49;97694.59;;;6.61;97.25
42671;BME280;28283;55.426;37.756;2022-09-25T06:01:50;97678.44;;;6.49;97.06
42671;BME280;28283;55.426;37.756;2022-09-25T06:06:51;97709.09;;;6.72;97.10
42671;BME280;28283;55.426;37.756;2022-09-25T06:11:52;97711.94;;;6.77;96.97
42671;BME280;28283;55.426;37.756;2022-09-25T06:16:53;97666.91;;;6.56;96.51
42671;BME280;28283;55.426;37.756;2022-09-25T06:21:57;97640.53;;;6.41;96.88
42671;BME280;28283;55.426;37.756;2022-09-25T06:26:57;97718.81;;;6.92;95.56
42671;BME280;28283;55.426;37.756;2022-09-25T06:31:58;97699.19;;;6.79;95.67
42671;BME280;28283;55.426;37.756;2022-09-25T06:36:59;97731.88;;;7.00;94.84
42671;BME280;28283;55.426;37.756;2022-09-25T06:42:00;97729.06;;;6.95;94.77
42671;BME280;28283;55.426;37.756;2022-09-25T06:47:01;97734.28;;;7.08;94.26
42671;BME280;28283;55.426;37.756;2022-09-25T06:52:01;97746.81;;;7.14;94.30
42671;BME280;28283;55.426;37.756;2022-09-25T06:57:02;97726.88;;;7.10;93.66
42671;BME280;28283;55.426;37.756;2022-09-25T07:02:03;97756.66;;;7.39;94.44
42671;BME280;28283;55.426;37.756;2022-09-25T07:07:23;97757.97;;;7.30;93.88
42671;BME280;28283;55.426;37.756;2022-09-25T07:12:24;97767.78;;;7.36;93.47
42671;BME280;28283;55.426;37.756;2022-09-25T07:17:25;97771.59;;;7.47;92.83
42671;BME280;28283;55.426;37.756;2022-09-25T07:22:28;97766.25;;;7.47;92.99
42671;BME280;28283;55.426;37.756;2022-09-25T07:27:29;97765.88;;;7.43;92.92
42671;BME280;28283;55.426;37.756;2022-09-25T07:32:29;97750.38;;;7.26;92.15
42671;BME280;28283;55.426;37.756;2022-09-25T07:37:31;97805.09;;;7.49;92.36
42671;BME280;28283;55.426;37.756;2022-09-25T07:42:31;97726.53;;;7.00;92.47
42671;BME280;28283;55.426;37.756;2022-09-25T07:47:32;97794.34;;;7.56;92.33
42671;BME280;28283;55.426;37.756;2022-09-25T07:52:37;97817.91;;;7.65;91.90
42671;BME280;28283;55.426;37.756;2022-09-25T07:57:41;97817.84;;;7.72;90.83
42671;BME280;28283;55.426;37.756;2022-09-25T08:02:43;97828.13;;;7.75;90.65
42671;BME280;28283;55.426;37.756;2022-09-25T08:07:44;97820.56;;;7.65;90.49
42671;BME280;28283;55.426;37.756;2022-09-25T08:12:44;97790.38;;;7.40;90.23
42671;BME280;28283;55.426;37.756;2022-09-25T08:17:45;97814.69;;;7.57;90.62
42671;BME280;28283;55.426;37.756;2022-09-25T08:22:46;97825.53;;;7.62;90.16
42671;BME280;28283;55.426;37.756;2022-09-25T08:27:47;97858.59;;;7.93;91.22
42671;BME280;28283;55.426;37.756;2022-09-25T08:32:51;97865.59;;;7.94;90.54
42671;BME280;28283;55.426;37.756;2022-09-25T08:37:51;97881.81;;;7.99;89.99
42671;BME280;28283;55.426;37.756;2022-09-25T08:42:53;97864.47;;;7.83;90.42
42671;BME280;28283;55.426;37.756;2022-09-25T08:47:56;97902.38;;;7.98;90.28
42671;BME280;28283;55.426;37.756;2022-09-25T08:53:21;97901.03;;;7.89;90.23
42671;BME280;28283;55.426;37.756;2022-09-25T08:58:28;97881.81;;;7.74;90.34
42671;BME280;28283;55.426;37.756;2022-09-25T09:03:31;97921.41;;;7.90;89.92
42671;BME280;28283;55.426;37.756;2022-09-25T09:08:35;97912.22;;;7.79;89.89
42671;BME280;28283;55.426;37.756;2022-09-25T09:13:50;97940.16;;;7.83;89.79
42671;BME280;28283;55.426;37.756;2022-09-25T09:19:10;97951.69;;;7.84;90.40
42671;BME280;28283;55.426;37.756;2022-09-25T09:29:22;97952.59;;;7.71;89.36
42671;BME280;28283;55.426;37.756;2022-09-25T09:39:36;97964.97;;;7.72;89.57
42671;BME280;28283;55.426;37.756;2022-09-25T09:49:57;97941.97;;;7.64;89.72
42671;BME280;28283;55.426;37.756;2022-09-25T10:00:35;97985.19;;;8.18;88.49
42671;BME280;28283;55.426;37.756;2022-09-25T10:05:43;97991.44;;;8.31;87.99
42671;BME280;28283;55.426;37.756;2022-09-25T10:10:50;97992.19;;;8.38;87.54
42671;BME280;28283;55.426;37.756;2022-09-25T10:21:15;97983.78;;;8.34;89.17
42671;BME280;28283;55.426;37.756;2022-09-25T10:26:28;97993.91;;;8.32;88.30
42671;BME280;28283;55.426;37.756;2022-09-25T10:31:33;98002.53;;;8.34;87.90
42671;BME280;28283;55.426;37.756;2022-09-25T10:36:38;98014.25;;;8.40;87.22
42671;BME280;28283;55.426;37.756;2022-09-25T10:41:41;97981.75;;;8.11;86.09
42671;BME280;28283;55.426;37.756;2022-09-25T10:46:42;98018.09;;;8.51;86.13
42671;BME280;28283;55.426;37.756;2022-09-25T10:52:12;98007.41;;;8.69;86.14
42671;BME280;28283;55.426;37.756;2022-09-25T10:57:34;98030.72;;;8.87;84.16
42671;BME280;28283;55.426;37.756;2022-09-25T11:02:40;98030.72;;;8.87;83.13
42671;BME280;28283;55.426;37.756;2022-09-25T11:07:51;98018.72;;;8.90;83.54
42671;BME280;28283;55.426;37.756;2022-09-25T11:12:54;97983.56;;;8.61;82.71
42671;BME280;28283;55.426;37.756;2022-09-25T11:17:56;98029.16;;;8.79;83.58
42671;BME280;28283;55.426;37.756;2022-09-25T11:23:15;98043.56;;;8.78;83.24
42671;BME280;28283;55.426;37.756;2022-09-25T11:28:52;98042.81;;;8.71;83.87
42671;BME280;28283;55.426;37.756;2022-09-25T11:39:03;98033.47;;;8.30;83.86
42671;BME280;28283;55.426;37.756;2022-09-25T11:44:33;98024.56;;;8.11;83.33
42671;BME280;28283;55.426;37.756;2022-09-25T11:49:40;98071.16;;;8.29;83.42
42671;BME280;28283;55.426;37.756;2022-09-25T12:00:21;98074.97;;;8.46;82.71
42671;BME280;28283;55.426;37.756;2022-09-25T12:12:01;98070.22;;;8.41;82.54
42671;BME280;28283;55.426;37.756;2022-09-25T12:22:07;98031.84;;;8.29;83.38
42671;BME280;28283;55.426;37.756;2022-09-25T12:32:32;98092.44;;;8.74;82.90
42671;BME280;28283;55.426;37.756;2022-09-25T12:37:51;98102.50;;;8.78;82.23
42671;BME280;28283;55.426;37.756;2022-09-25T12:43:08;98082.78;;;8.73;82.55
42671;BME280;28283;55.426;37.756;2022-09-25T12:48:36;98109.97;;;8.76;81.63
42671;BME280;28283;55.426;37.756;2022-09-25T12:53:44;98085.47;;;8.48;82.84
42671;BME280;28283;55.426;37.756;2022-09-25T12:58:55;98113.44;;;8.77;83.00
42671;BME280;28283;55.426;37.756;2022-09-25T13:14:44;98109.75;;;8.78;81.96
42671;BME280;28283;55.426;37.756;2022-09-25T13:19:46;98118.16;;;8.82;82.85
42671;BME280;28283;55.426;37.756;2022-09-25T13:25:12;98122.41;;;8.64;82.06
42671;BME280;28283;55.426;37.756;2022-09-25T13:30:23;98104.13;;;8.29;82.50
42671;BME280;28283;55.426;37.756;2022-09-25T13:35:25;98140.53;;;8.37;82.83
42671;BME280;28283;55.426;37.756;2022-09-25T13:40:27;98127.72;;;8.39;83.30
42671;BME280;28283;55.426;37.756;2022-09-25T13:45:44;98109.69;;;8.28;83.07
42671;BME280;28283;55.426;37.756;2022-09-25T13:50:46;98151.63;;;8.40;82.93
42671;BME280;28283;55.426;37.756;2022-09-25T14:05:52;98133.91;;;8.39;82.29
42671;BME280;28283;55.426;37.756;2022-09-25T14:10:54;98165.09;;;8.59;82.02
42671;BME280;28283;55.426;37.756;2022-09-25T14:15:58;98131.63;;;8.43;82.58
42671;BME280;28283;55.426;37.756;2022-09-25T14:21:00;98150.94;;;8.52;82.81
42671;BME280;28283;55.426;37.756;2022-09-25T14:26:05;98156.13;;;8.47;82.63
42671;BME280;28283;55.426;37.756;2022-09-25T14:31:38;98179.09;;;8.61;83.39
42671;BME280;28283;55.426;37.756;2022-09-25T14:47:38;98161.38;;;8.28;82.84
42671;BME280;28283;55.426;37.756;2022-09-25T14:52:44;98149.63;;;8.29;83.41
42671;BME280;28283;55.426;37.756;2022-09-25T14:57:46;98185.97;;;8.50;84.07
42671;BME280;28283;55.426;37.756;2022-09-25T15:02:47;98192.81;;;8.46;84.04
42671;BME280;28283;55.426;37.756;2022-09-25T15:07:49;98175.63;;;8.22;84.70
42671;BME280;28283;55.426;37.756;2022-09-25T15:12:50;98139.75;;;7.91;84.94
42671;BME280;28283;55.426;37.756;2022-09-25T15:17:54;98207.91;;;8.27;85.29
42671;BME280;28283;55.426;37.756;2022-09-25T15:23:02;98220.28;;;8.21;84.77
42671;BME280;28283;55.426;37.756;2022-09-25T15:28:06;98221.16;;;8.15;84.41
42671;BME280;28283;55.426;37.756;2022-09-25T15:33:25;98226.34;;;8.03;84.83
42671;BME280;28283;55.426;37.756;2022-09-25T15:38:37;98204.81;;;7.85;85.74
42671;BME280;28283;55.426;37.756;2022-09-25T15:43:41;98225.13;;;7.99;86.29
42671;BME280;28283;55.426;37.756;2022-09-25T15:48:53;98208.88;;;7.94;86.85
42671;BME280;28283;55.426;37.756;2022-09-25T15:54:29;98219.97;;;8.05;87.39
42671;BME280;28283;55.426;37.756;2022-09-25T15:59:42;98236.63;;;8.07;86.98
42671;BME280;28283;55.426;37.756;2022-09-25T16:05:28;98184.88;;;7.74;87.14
42671;BME280;28283;55.426;37.756;2022-09-25T16:10:31;98222.47;;;7.99;86.92
42671;BME280;28283;55.426;37.756;2022-09-25T16:15:50;98241.78;;;8.08;86.37
42671;BME280;28283;55.426;37.756;2022-09-25T16:21:06;98236.03;;;7.98;86.05
42671;BME280;28283;55.426;37.756;2022-09-25T16:26:16;98250.88;;;7.94;86.02
42671;BME280;28283;55.426;37.756;2022-09-25T16:31:22;98253.97;;;7.91;86.81
42671;BME280;28283;55.426;37.756;2022-09-25T16:36:24;98187.44;;;7.56;86.87
42671;BME280;28283;55.426;37.756;2022-09-25T16:41:29;98216.19;;;7.74;86.96
42671;BME280;28283;55.426;37.756;2022-09-25T16:46:30;98262.81;;;7.98;87.72
42671;BME280;28283;55.426;37.756;2022-09-25T16:51:31;98248.84;;;7.89;87.74
42671;BME280;28283;55.426;37.756;2022-09-25T16:56:32;98216.19;;;7.60;88.37
42671;BME280;28283;55.426;37.756;2022-09-25T17:01:33;98258.31;;;7.92;88.90
42671;BME280;28283;55.426;37.756;2022-09-25T17:06:33;98256.66;;;7.97;87.37
42671;BME280;28283;55.426;37.756;2022-09-25T17:11:41;98262.00;;;7.97;87.01
42671;BME280;28283;55.426;37.756;2022-09-25T17:16:47;98266.53;;;7.97;87.28
42671;BME280;28283;55.426;37.756;2022-09-25T17:21:51;98272.72;;;7.91;87.98
42671;BME280;28283;55.426;37.756;2022-09-25T17:26:52;98269.03;;;7.85;86.99
42671;BME280;28283;55.426;37.756;2022-09-25T17:31:54;98261.59;;;7.87;86.29
42671;BME280;28283;55.426;37.756;2022-09-25T17:36:54;98244.19;;;7.64;88.05
42671;BME280;28283;55.426;37.756;2022-09-25T17:41:57;98249.34;;;7.59;88.26
42671;BME280;28283;55.426;37.756;2022-09-25T17:46:57;98255.09;;;7.63;88.12
42671;BME280;28283;55.426;37.756;2022-09-25T17:52:02;98271.94;;;7.70;89.04
42671;BME280;28283;55.426;37.756;2022-09-25T17:57:26;98258.22;;;7.47;89.27
42671;BME280;28283;55.426;37.756;2022-09-25T18:02:29;98273.19;;;7.61;89.30
42671;BME280;28283;55.426;37.756;2022-09-25T18:07:30;98207.81;;;7.30;89.29
42671;BME280;28283;55.426;37.756;2022-09-25T18:12:30;98283.06;;;7.74;89.06
42671;BME280;28283;55.426;37.756;2022-09-25T18:17:34;98276.03;;;7.66;88.88
42671;BME280;28283;55.426;37.756;2022-09-25T18:22:35;98275.84;;;7.74;87.61
42671;BME280;28283;55.426;37.756;2022-09-25T18:27:38;98278.72;;;7.79;87.57
42671;BME280;28283;55.426;37.756;2022-09-25T18:32:41;98259.84;;;7.61;88.25
42671;BME280;28283;55.426;37.756;2022-09-25T18:37:42;98278.97;;;7.64;87.93
42671;BME280;28283;55.426;37.756;2022-09-25T18:42:43;98279.97;;;7.63;88.45
42671;BME280;28283;55.426;37.756;2022-09-25T18:47:44;98244.22;;;7.38;89.01
42671;BME280;28283;55.426;37.756;2022-09-25T18:52:45;98279.78;;;7.58;89.10
42671;BME280;28283;55.426;37.756;2022-09-25T18:57:46;98261.50;;;7.42;89.80
42671;BME280;28283;55.426;37.756;2022-09-25T19:02:47;98268.91;;;7.40;90.65
42671;BME280;28283;55.426;37.756;2022-09-25T19:07:48;98282.25;;;7.53;90.46
42671;BME280;28283;55.426;37.756;2022-09-25T19:12:49;98290.47;;;7.65;90.91
42671;BME280;28283;55.426;37.756;2022-09-25T19:17:50;98255.94;;;7.43;90.47
42671;BME280;28283;55.426;37.756;2022-09-25T19:22:53;98303.00;;;7.71;89.65
42671;BME280;28283;55.426;37.756;2022-09-25T19:27:54;98301.97;;;7.65;90.64
42671;BME280;28283;55.426;37.756;2022-09-25T19:32:55;98290.25;;;7.67;90.62
42671;BME280;28283;55.426;37.756;2022-09-25T19:37:55;98306.50;;;7.72;90.68
42671;BME280;28283;55.426;37.756;2022-09-25T19:42:56;98301.56;;;7.69;90.74
42671;BME280;28283;55.426;37.756;2022-09-25T19:47:57;98310.22;;;7.71;90.55
42671;BME280;28283;55.426;37.756;2022-09-25T19:52:58;98297.03;;;7.62;90.75
42671;BME280;28283;55.426;37.756;2022-09-25T19:58:00;98295.81;;;7.58;91.21
42671;BME280;28283;55.426;37.756;2022-09-25T20:03:01;98306.50;;;7.72;90.87
42671;BME280;28283;55.426;37.756;2022-09-25T20:08:02;98302.38;;;7.69;91.40
42671;BME280;28283;55.426;37.756;2022-09-25T20:13:05;98313.28;;;7.74;90.98
42671;BME280;28283;55.426;37.756;2022-09-25T20:18:06;98301.16;;;7.58;91.52
42671;BME280;28283;55.426;37.756;2022-09-25T20:23:07;98303.44;;;7.61;91.59
42671;BME280;28283;55.426;37.756;2022-09-25T20:28:10;98317.22;;;7.72;91.53
42671;BME280;28283;55.426;37.756;2022-09-25T20:33:12;98296.63;;;7.59;91.70
42671;BME280;28283;55.426;37.756;2022-09-25T20:38:12;98326.06;;;7.72;91.55
42671;BME280;28283;55.426;37.756;2022-09-25T20:43:13;98313.72;;;7.64;91.66
42671;BME280;28283;55.426;37.756;2022-09-25T20:48:14;98301.56;;;7.55;91.68
42671;BME280;28283;55.426;37.756;2022-09-25T20:53:17;98290.50;;;7.45;91.74
42671;BME280;28283;55.426;37.756;2022-09-25T20:58:18;98302.41;;;7.49;91.52
42671;BME280;28283;55.426;37.756;2022-09-25T21:03:19;98327.06;;;7.78;91.11
42671;BME280;28283;55.426;37.756;2022-09-25T21:08:19;98320.13;;;7.50;92.04
42671;BME280;28283;55.426;37.756;2022-09-25T21:13:21;98309.41;;;7.50;91.56
42671;BME280;28283;55.426;37.756;2022-09-25T21:18:21;98337.16;;;7.62;92.45
42671;BME280;28283;55.426;37.756;2022-09-25T21:23:22;98311.44;;;7.48;92.42
42671;BME280;28283;55.426;37.756;2022-09-25T21:28:23;98340.88;;;7.61;92.30
42671;BME280;28283;55.426;37.756;2022-09-25T21:33:24;98329.97;;;7.50;92.36
42671;BME280;28283;55.426;37.756;2022-09-25T21:38:25;98334.72;;;7.54;92.26
42671;BME280;28283;55.426;37.756;2022-09-25T21:43:29;98338.00;;;7.56;92.62
42671;BME280;28283;55.426;37.756;2022-09-25T21:48:30;98340.88;;;7.48;93.07
42671;BME280;28283;55.426;37.756;2022-09-25T21:53:34;98335.50;;;7.48;92.98
42671;BME280;28283;55.426;37.756;2022-09-25T21:58:35;98334.91;;;7.46;93.33
42671;BME280;28283;55.426;37.756;2022-09-25T22:03:39;98331.59;;;7.37;93.13
42671;BME280;28283;55.426;37.756;2022-09-25T22:08:43;98358.34;;;7.44;92.65
42671;BME280;28283;55.426;37.756;2022-09-25T22:13:45;98354.06;;;7.43;92.80
42671;BME280;28283;55.426;37.756;2022-09-25T22:18:57;98355.47;;;7.39;93.03
42671;BME280;28283;55.426;37.756;2022-09-25T22:23:58;98369.44;;;7.41;93.72
42671;BME280;28283;55.426;37.756;2022-09-25T22:28:59;98355.47;;;7.39;93.33
42671;BME280;28283;55.426;37.756;2022-09-25T22:34:07;98361.44;;;7.41;94.22
42671;BME280;28283;55.426;37.756;2022-09-25T22:39:10;98341.69;;;7.35;93.45
42671;BME280;28283;55.426;37.756;2022-09-25T22:44:12;98340.66;;;7.30;93.37
42671;BME280;28283;55.426;37.756;2022-09-25T22:49:13;98343.53;;;7.35;93.01
42671;BME280;28283;55.426;37.756;2022-09-25T22:54:14;98365.13;;;7.53;92.18
42671;BME280;28283;55.426;37.756;2022-09-25T22:59:15;98366.78;;;7.48;92.54
42671;BME280;28283;55.426;37.756;2022-09-25T23:04:21;98367.81;;;7.40;92.72
42671;BME280;28283;55.426;37.756;2022-09-25T23:09:23;98384.06;;;7.25;94.24
42671;BME280;28283;55.426;37.756;2022-09-25T23:14:28;98389.38;;;7.18;94.89
42671;BME280;28283;55.426;37.756;2022-09-25T23:19:29;98384.22;;;7.17;94.64
42671;BME280;28283;55.426;37.756;2022-09-25T23:24:30;98349.25;;;6.92;95.12
42671;BME280;28283;55.426;37.756;2022-09-25T23:29:31;98383.81;;;7.26;94.83
42671;BME280;28283;55.426;37.756;2022-09-25T23:34:31;98375.41;;;7.16;95.04
42671;BME280;28283;55.426;37.756;2022-09-25T23:39:32;98312.00;;;6.70;95.03
42671;BME280;28283;55.426;37.756;2022-09-25T23:44:32;98397.81;;;7.22;94.91
42671;BME280;28283;55.426;37.756;2022-09-25T23:49:33;98393.06;;;7.17;95.47
42671;BME280;28283;55.426;37.756;2022-09-25T23:54:34;98389.97;;;7.14;94.71
42671;BME280;28283;55.426;37.756;2022-09-25T23:59:36;98397.78;;;7.15;95.73
